createdAt,value
2023-02-13T00:01:05.308Z,100422.13
2023-02-13T00:03:31.786Z,100418.25
2023-02-13T00:05:58.297Z,100416.63
2023-02-13T00:08:24.773Z,100417.16
2023-02-13T00:10:51.246Z,100424.59
2023-02-13T00:13:17.699Z,100416.59
2023-02-13T00:15:44.246Z,100422.38
2023-02-13T00:18:10.724Z,100417.44
2023-02-13T00:20:37.221Z,100418.53
2023-02-13T00:23:03.690Z,100421.59
2023-02-13T00:25:30.166Z,100416.91
2023-02-13T00:27:56.663Z,100416.91
2023-02-13T00:30:23.162Z,100411.66
2023-02-13T00:32:49.624Z,100417.72
2023-02-13T00:35:16.109Z,100416.59
2023-02-13T00:37:42.563Z,100411.91
2023-02-13T00:40:09.416Z,100408.31
2023-02-13T00:42:35.882Z,100408.31
2023-02-13T00:45:02.356Z,100411.63
2023-02-13T00:47:28.877Z,100405.56
2023-02-13T00:49:55.347Z,100407.47
2023-02-13T00:52:21.807Z,100410.78
2023-02-13T00:54:48.322Z,100403.06
2023-02-13T00:57:14.807Z,100404.19
2023-02-13T00:59:41.276Z,100406.63
2023-02-13T01:02:07.769Z,100406.38
2023-02-13T01:04:34.337Z,100409.94
2023-02-13T01:07:00.873Z,100396.75
2023-02-13T01:09:27.343Z,100398.38
2023-02-13T01:11:53.817Z,100401.13
2023-02-13T01:14:20.273Z,100404.44
2023-02-13T01:16:47.001Z,100400.59
2023-02-13T01:19:13.742Z,100404.19
2023-02-13T01:21:40.208Z,100405.84
2023-02-13T01:24:06.873Z,100408.84
2023-02-13T01:26:33.389Z,100411.63
2023-02-13T01:28:59.881Z,100407.19
2023-02-13T01:31:26.466Z,100409.09
2023-02-13T01:33:52.999Z,100402.78
2023-02-13T01:36:19.476Z,100402.50
2023-02-13T01:38:45.970Z,100402.75
2023-02-13T01:41:12.503Z,100402.75
2023-02-13T01:43:50.308Z,100396.41
2023-02-13T01:46:23.071Z,100391.75
2023-02-13T01:48:49.894Z,100401.66
2023-02-13T01:51:19.689Z,100392.84
2023-02-13T01:53:53.556Z,100392.84
2023-02-13T01:56:59.907Z,100386.22
2023-02-13T01:59:29.222Z,100385.66
2023-02-13T02:01:55.987Z,100383.75
2023-02-13T02:04:25.526Z,100378.78
2023-02-13T02:06:53.703Z,100381.00
2023-02-13T02:09:22.353Z,100377.97
2023-02-13T02:12:10.138Z,100377.69
2023-02-13T02:14:36.632Z,100381.28
2023-02-13T02:17:03.087Z,100376.63
2023-02-13T02:19:43.474Z,100377.44
2023-02-13T02:22:16.707Z,100371.09
2023-02-13T02:25:11.005Z,100363.66
2023-02-13T02:27:37.306Z,100371.34
2023-02-13T02:30:19.275Z,100362.56
2023-02-13T02:32:54.860Z,100366.09
2023-02-13T02:35:40.037Z,100372.13
2023-02-13T02:38:33.130Z,100366.38
2023-02-13T02:41:11.631Z,100364.16
2023-02-13T02:44:05.497Z,100369.69
2023-02-13T02:46:36.192Z,100368.00
2023-02-13T02:49:30.436Z,100371.56
2023-02-13T02:52:02.868Z,100366.59
2023-02-13T02:55:03.553Z,100363.31
2023-02-13T02:57:51.276Z,100363.59
2023-02-13T03:00:38.149Z,100360.81
2023-02-13T03:03:36.976Z,100361.38
2023-02-13T03:06:16.561Z,100366.38
2023-02-13T03:09:09.764Z,100359.50
2023-02-13T03:11:55.358Z,100357.59
2023-02-13T03:14:21.821Z,100363.94
2023-02-13T03:17:06.875Z,100359.53
2023-02-13T03:20:17.253Z,100353.50
2023-02-13T03:22:51.679Z,100352.94
2023-02-13T03:25:35.281Z,100349.91
2023-02-13T03:28:29.623Z,100350.16
2023-02-13T03:31:23.263Z,100356.50
2023-02-13T03:34:06.486Z,100350.16
2023-02-13T03:37:00.734Z,100352.63
2023-02-13T03:39:34.430Z,100354.81
2023-02-13T03:42:02.960Z,100358.66
2023-02-13T03:45:11.772Z,100361.16
2023-02-13T03:47:38.278Z,100369.38
2023-02-13T03:50:05.803Z,100366.63
2023-02-13T03:52:49.132Z,100378.47
2023-02-13T03:55:38.194Z,100372.41
2023-02-13T03:58:31.929Z,100371.31
2023-02-13T04:00:59.582Z,100378.22
2023-02-13T04:03:33.430Z,100371.56
2023-02-13T04:06:06.312Z,100377.63
2023-02-13T04:08:32.812Z,100378.16
2023-02-13T04:11:13.599Z,100375.09
2023-02-13T04:13:47.024Z,100369.03
2023-02-13T04:16:18.614Z,100373.19
2023-02-13T04:18:45.098Z,100374.31
2023-02-13T04:21:11.590Z,100376.22
2023-02-13T04:23:38.034Z,100369.31
2023-02-13T04:26:07.364Z,100370.41
2023-02-13T04:28:33.891Z,100374.53
2023-02-13T04:31:01.063Z,100370.16
2023-02-13T04:33:27.724Z,100372.66
2023-02-13T04:35:54.209Z,100384.47
2023-02-13T04:38:20.676Z,100376.19
2023-02-13T04:40:47.132Z,100371.75
2023-02-13T04:43:13.621Z,100364.59
2023-02-13T04:45:40.126Z,100363.78
2023-02-13T04:48:06.643Z,100370.13
2023-02-13T04:50:33.122Z,100364.06
2023-02-13T04:52:59.636Z,100360.47
2023-02-13T04:55:26.832Z,100354.16
2023-02-13T04:57:54.032Z,100359.16
2023-02-13T05:00:21.783Z,100354.44
2023-02-13T05:02:48.273Z,100348.41
2023-02-13T05:05:14.751Z,100352.81
2023-02-13T05:07:41.884Z,100350.84
2023-02-13T05:10:09.781Z,100338.72
2023-02-13T05:12:36.376Z,100340.59
2023-02-13T05:15:03.012Z,100343.34
2023-02-13T05:17:29.484Z,100345.28
2023-02-13T05:19:56.043Z,100349.69
2023-02-13T05:22:41.125Z,100355.19
2023-02-13T05:25:07.686Z,100352.72
2023-02-13T05:27:34.150Z,100353.81
2023-02-13T05:30:00.619Z,100360.69
2023-02-13T05:32:27.076Z,100358.47
2023-02-13T05:34:53.537Z,100359.56
2023-02-13T05:37:20.425Z,100354.59
2023-02-13T05:39:46.919Z,100355.13
2023-02-13T05:42:13.443Z,100359.84
2023-02-13T05:44:39.937Z,100368.88
2023-02-13T05:47:06.466Z,100365.56
2023-02-13T05:49:32.961Z,100369.50
2023-02-13T05:51:59.431Z,100369.75
2023-02-13T05:54:25.899Z,100370.88
2023-02-13T05:56:52.365Z,100369.50
2023-02-13T05:59:18.828Z,100368.34
2023-02-13T06:01:45.368Z,100377.72
2023-02-13T06:04:11.909Z,100381.03
2023-02-13T06:06:38.427Z,100385.63
2023-02-13T06:09:05.256Z,100391.69
2023-02-13T06:11:31.968Z,100395.53
2023-02-13T06:13:58.432Z,100394.19
2023-02-13T06:16:24.974Z,100392.00
2023-02-13T06:18:51.597Z,100402.81
2023-02-13T06:21:18.329Z,100401.63
2023-02-13T06:23:44.889Z,100403.53
2023-02-13T06:26:11.415Z,100406.56
2023-02-13T06:28:37.945Z,100415.06
2023-02-13T06:31:04.653Z,100413.41
2023-02-13T06:33:31.248Z,100415.31
2023-02-13T06:35:57.755Z,100414.72
2023-02-13T06:38:24.375Z,100423.22
2023-02-13T06:40:51.097Z,100427.63
2023-02-13T06:43:17.828Z,100431.69
2023-02-13T06:45:44.367Z,100437.50
2023-02-13T06:48:10.830Z,100441.63
2023-02-13T06:50:37.386Z,100439.72
2023-02-13T06:53:03.862Z,100440.00
2023-02-13T06:55:30.329Z,100444.34
2023-02-13T06:57:56.790Z,100449.53
2023-02-13T07:00:25.641Z,100443.47
2023-02-13T07:02:52.727Z,100448.66
2023-02-13T07:05:19.321Z,100450.88
2023-02-13T07:07:45.832Z,100451.13
2023-02-13T07:10:13.187Z,100454.72
2023-02-13T07:12:39.648Z,100454.19
2023-02-13T07:15:06.328Z,100454.47
2023-02-13T07:17:33.953Z,100445.91
2023-02-13T07:20:00.446Z,100450.00
2023-02-13T07:22:26.962Z,100445.31
2023-02-13T07:24:53.517Z,100443.97
2023-02-13T07:27:20.063Z,100446.47
2023-02-13T07:29:46.519Z,100448.38
2023-02-13T07:32:13.134Z,100446.53
2023-02-13T07:34:44.447Z,100446.78
2023-02-13T07:37:15.740Z,100445.63
2023-02-13T07:39:42.198Z,100447.28
2023-02-13T07:42:08.681Z,100445.91
2023-02-13T07:44:35.148Z,100441.28
2023-02-13T07:47:01.708Z,100443.78
2023-02-13T07:49:28.204Z,100444.03
2023-02-13T07:51:56.605Z,100443.97
2023-02-13T07:54:23.082Z,100434.91
2023-02-13T07:56:49.573Z,100437.69
2023-02-13T07:59:16.035Z,100448.97
2023-02-13T08:01:42.642Z,100450.94
2023-02-13T08:04:09.153Z,100457.78
2023-02-13T08:06:35.679Z,100464.38
2023-02-13T08:09:20.716Z,100459.50
2023-02-13T08:11:56.204Z,100469.66
2023-02-13T08:14:23.375Z,100464.94
2023-02-13T08:16:50.061Z,100477.41
2023-02-13T08:19:16.536Z,100481.25
2023-02-13T08:21:43.125Z,100477.66
2023-02-13T08:24:09.694Z,100470.53
2023-02-13T08:26:36.271Z,100475.75
2023-02-13T08:29:02.740Z,100471.44
2023-02-13T08:31:29.292Z,100468.38
2023-02-13T08:33:57.410Z,100465.13
2023-02-13T08:36:24.503Z,100464.28
2023-02-13T08:38:51.233Z,100459.03
2023-02-13T08:41:23.813Z,100462.94
2023-02-13T08:43:50.370Z,100461.78
2023-02-13T08:46:17.683Z,100459.66
2023-02-13T08:48:44.226Z,100472.59
2023-02-13T08:51:11.920Z,100471.44
2023-02-13T08:53:38.641Z,100467.34
2023-02-13T08:56:05.384Z,100464.38
2023-02-13T08:58:31.896Z,100468.25
2023-02-13T09:00:58.421Z,100456.44
2023-02-13T09:03:24.930Z,100454.00
2023-02-13T09:05:51.403Z,100453.44
2023-02-13T09:08:18.818Z,100445.75
2023-02-13T09:10:45.560Z,100439.09
2023-02-13T09:13:12.136Z,100433.94
2023-02-13T09:15:40.538Z,100442.78
2023-02-13T09:18:07.474Z,100430.41
2023-02-13T09:20:35.747Z,100424.03
2023-02-13T09:23:02.522Z,100432.31
2023-02-13T09:25:28.988Z,100427.03
2023-02-13T09:27:55.475Z,100424.03
2023-02-13T09:30:24.886Z,100429.03
2023-02-13T09:32:52.341Z,100429.34
2023-02-13T09:35:19.313Z,100433.72
2023-02-13T09:37:45.892Z,100427.78
2023-02-13T09:40:28.025Z,100422.63
2023-02-13T09:42:57.438Z,100426.50
2023-02-13T09:45:23.936Z,100439.50
2023-02-13T09:47:50.425Z,100430.13
2023-02-13T09:50:29.256Z,100428.25
2023-02-13T09:52:56.590Z,100434.88
2023-02-13T09:55:29.884Z,100446.22
2023-02-13T09:58:08.743Z,100437.38
2023-02-13T10:00:39.416Z,100434.03
2023-02-13T10:03:22.051Z,100435.41
2023-02-13T10:06:12.760Z,100433.19
2023-02-13T10:08:52.494Z,100433.78
2023-02-13T10:11:46.968Z,100422.50
2023-02-13T10:14:32.930Z,100425.53
2023-02-13T10:17:05.861Z,100417.56
2023-02-13T10:19:48.143Z,100417.31
2023-02-13T10:22:31.148Z,100411.00
2023-02-13T10:25:01.272Z,100411.56
2023-02-13T10:28:07.440Z,100405.47
2023-02-13T10:30:37.024Z,100401.06
2023-02-13T10:33:18.591Z,100403.81
2023-02-13T10:36:02.751Z,100405.78
2023-02-13T10:38:33.537Z,100411.00
2023-02-13T10:41:23.148Z,100412.94
2023-02-13T10:44:10.835Z,100407.13
2023-02-13T10:46:58.823Z,100404.66
2023-02-13T10:49:34.319Z,100402.16
2023-02-13T10:52:20.046Z,100414.31
2023-02-13T10:55:02.508Z,100413.25
2023-02-13T10:57:43.044Z,100406.59
2023-02-13T11:00:20.665Z,100406.91
2023-02-13T11:02:47.145Z,100403.28
2023-02-13T11:05:22.118Z,100404.66
2023-02-13T11:07:48.628Z,100395.41
2023-02-13T11:10:23.285Z,100385.72
2023-02-13T11:12:49.906Z,100379.09
2023-02-13T11:15:32.350Z,100372.78
2023-02-13T11:18:13.153Z,100372.22
2023-02-13T11:20:44.397Z,100374.19
2023-02-13T11:23:29.484Z,100372.25
2023-02-13T11:26:04.900Z,100373.06
2023-02-13T11:28:32.804Z,100357.38
2023-02-13T11:31:12.836Z,100357.72
2023-02-13T11:33:39.378Z,100361.59
2023-02-13T11:36:13.447Z,100357.44
2023-02-13T11:38:39.949Z,100350.56
2023-02-13T11:41:12.938Z,100350.81
2023-02-13T11:43:50.567Z,100347.25
2023-02-13T11:46:22.653Z,100351.09
2023-02-13T11:49:04.928Z,100343.38
2023-02-13T11:51:36.297Z,100330.69
2023-02-13T11:54:03.109Z,100328.22
2023-02-13T11:56:29.575Z,100324.34
2023-02-13T11:59:01.891Z,100321.88
2023-02-13T12:01:29.097Z,100327.94
2023-02-13T12:04:07.545Z,100330.13
2023-02-13T12:06:39.652Z,100319.66
2023-02-13T12:09:12.226Z,100323.81
2023-02-13T12:11:46.698Z,100316.63
2023-02-13T12:14:18.294Z,100313.84
2023-02-13T12:17:01.140Z,100315.50
2023-02-13T12:19:35.422Z,100309.97
2023-02-13T12:22:40.564Z,100313.00
2023-02-13T12:25:15.787Z,100307.50
2023-02-13T12:27:45.129Z,100304.44
2023-02-13T12:30:24.801Z,100302.50
2023-02-13T12:33:18.804Z,100303.34
2023-02-13T12:36:02.346Z,100289.25
2023-02-13T12:38:41.978Z,100293.41
2023-02-13T12:41:21.308Z,100286.53
2023-02-13T12:44:14.538Z,100289.59
2023-02-13T12:47:12.673Z,100293.13
2023-02-13T12:50:07.187Z,100284.63
2023-02-13T12:52:37.906Z,100280.19
2023-02-13T12:55:19.443Z,100281.03
2023-02-13T12:58:15.218Z,100274.66
2023-02-13T13:01:03.526Z,100270.19
2023-02-13T13:03:59.464Z,100271.25
2023-02-13T13:06:55.569Z,100263.81
2023-02-13T13:09:47.105Z,100261.06
2023-02-13T13:12:18.632Z,100262.09
2023-02-13T13:14:56.560Z,100259.31
2023-02-13T13:17:41.914Z,100258.47
2023-02-13T13:20:30.346Z,100250.69
2023-02-13T13:22:59.985Z,100247.91
2023-02-13T13:25:32.233Z,100254.19
2023-02-13T13:28:04.355Z,100256.28
2023-02-13T13:30:35.353Z,100250.41
2023-02-13T13:33:18.182Z,100243.75
2023-02-13T13:35:54.000Z,100229.97
2023-02-13T13:38:41.244Z,100230.50
2023-02-13T13:41:25.019Z,100230.22
2023-02-13T13:44:03.721Z,100233.19
2023-02-13T13:46:55.219Z,100232.25
2023-02-13T13:49:38.065Z,100228.84
2023-02-13T13:52:26.942Z,100225.50
2023-02-13T13:54:53.826Z,100222.38
2023-02-13T13:57:27.127Z,100219.47
2023-02-13T13:59:58.957Z,100208.06
2023-02-13T14:02:25.262Z,100217.66
2023-02-13T14:05:18.590Z,100201.00
2023-02-13T14:07:45.227Z,100208.19
2023-02-13T14:10:20.891Z,100204.16
2023-02-13T14:12:48.942Z,100206.09
2023-02-13T14:15:33.833Z,100208.25
2023-02-13T14:18:11.904Z,100202.63
2023-02-13T14:20:41.318Z,100208.03
2023-02-13T14:23:13.760Z,100207.94
2023-02-13T14:25:40.216Z,100203.50
2023-02-13T14:28:06.683Z,100187.75
2023-02-13T14:30:36.669Z,100193.50
2023-02-13T14:33:05.942Z,100193.69
2023-02-13T14:35:37.324Z,100191.88
2023-02-13T14:38:05.495Z,100190.47
2023-02-13T14:40:48.750Z,100186.84
2023-02-13T14:43:35.495Z,100197.31
2023-02-13T14:46:07.860Z,100188.44
2023-02-13T14:48:43.163Z,100184.94
2023-02-13T14:51:28.510Z,100200.84
2023-02-13T14:53:58.947Z,100195.56
2023-02-13T14:56:25.420Z,100190.00
2023-02-13T14:59:10.098Z,100185.50
2023-02-13T15:01:42.694Z,100193.91
2023-02-13T15:04:13.140Z,100187.88
2023-02-13T15:06:40.974Z,100190.97
2023-02-13T15:09:17.736Z,100182.09
2023-02-13T15:11:44.297Z,100173.00
2023-02-13T15:14:21.479Z,100173.81
2023-02-13T15:16:51.546Z,100166.44
2023-02-13T15:19:18.935Z,100169.56
2023-02-13T15:22:00.714Z,100171.88
2023-02-13T15:24:29.158Z,100170.78
2023-02-13T15:27:04.147Z,100175.75
2023-02-13T15:29:40.901Z,100186.03
2023-02-13T15:32:19.942Z,100182.25
2023-02-13T15:34:47.291Z,100185.31
2023-02-13T15:37:23.836Z,100175.75
2023-02-13T15:39:50.343Z,100185.94
2023-02-13T15:42:16.818Z,100182.94
2023-02-13T15:44:45.191Z,100188.13
2023-02-13T15:47:28.529Z,100186.78
2023-02-13T15:49:55.033Z,100189.53
2023-02-13T15:52:35.152Z,100183.47
2023-02-13T15:55:01.778Z,100185.69
2023-02-13T15:57:28.550Z,100190.34
2023-02-13T15:59:55.541Z,100181.78
2023-02-13T16:02:46.194Z,100183.16
2023-02-13T16:05:13.205Z,100181.22
2023-02-13T16:08:24.829Z,100180.28
2023-02-13T16:10:51.305Z,100191.03
2023-02-13T16:13:18.083Z,100192.13
2023-02-13T16:15:44.552Z,100188.44
2023-02-13T16:18:19.665Z,100197.22
2023-02-13T16:20:46.193Z,100206.81
2023-02-13T16:23:19.964Z,100218.44
2023-02-13T16:25:46.446Z,100223.06
2023-02-13T16:28:23.741Z,100231.31
2023-02-13T16:31:00.223Z,100243.38
2023-02-13T16:33:30.687Z,100251.78
2023-02-13T16:35:57.793Z,100247.59
2023-02-13T16:38:25.273Z,100256.41
2023-02-13T16:40:52.008Z,100255.88
2023-02-13T16:43:38.857Z,100261.75
2023-02-13T16:46:24.357Z,100266.16
2023-02-13T16:48:56.995Z,100278.50
2023-02-13T16:51:30.332Z,100273.25
2023-02-13T16:53:58.485Z,100274.84
2023-02-13T16:56:24.945Z,100270.72
2023-02-13T16:59:04.049Z,100269.31
2023-02-13T17:01:30.557Z,100273.13
2023-02-13T17:03:57.077Z,100273.81
2023-02-13T17:06:24.769Z,100277.09
2023-02-13T17:08:52.807Z,100265.16
2023-02-13T17:11:19.799Z,100272.06
2023-02-13T17:13:46.261Z,100274.94
2023-02-13T17:16:16.087Z,100274.34
2023-02-13T17:18:42.565Z,100276.56
2023-02-13T17:21:09.069Z,100273.13
2023-02-13T17:23:35.534Z,100279.13
2023-02-13T17:26:02.022Z,100268.41
2023-02-13T17:28:30.263Z,100280.84
2023-02-13T17:30:57.607Z,100291.31
2023-02-13T17:33:26.011Z,100282.72
2023-02-13T17:35:52.745Z,100290.69
2023-02-13T17:38:19.332Z,100279.13
2023-02-13T17:40:45.803Z,100300.59
2023-02-13T17:43:13.278Z,100288.50
2023-02-13T17:45:39.894Z,100297.81
2023-02-13T17:48:06.396Z,100299.78
2023-02-13T17:50:33.154Z,100301.03
2023-02-13T17:53:02.180Z,100299.69
2023-02-13T17:55:29.518Z,100291.84
2023-02-13T17:57:56.979Z,100295.22
2023-02-13T18:00:24.805Z,100296.94
2023-02-13T18:02:51.402Z,100290.38
2023-02-13T18:05:18.512Z,100296.75
2023-02-13T18:07:45.318Z,100295.50
2023-02-13T18:10:16.919Z,100297.09
2023-02-13T18:12:43.451Z,100293.81
2023-02-13T18:15:10.211Z,100292.53
2023-02-13T18:17:36.825Z,100297.25
2023-02-13T18:20:04.843Z,100285.38
2023-02-13T18:22:31.319Z,100293.63
2023-02-13T18:24:57.784Z,100296.75
2023-02-13T18:27:26.282Z,100302.53
2023-02-13T18:29:56.236Z,100302.03
2023-02-13T18:32:22.948Z,100289.22
2023-02-13T18:34:50.155Z,100297.19
2023-02-13T18:37:17.210Z,100300.19
2023-02-13T18:39:43.711Z,100302.03
2023-02-13T18:42:11.458Z,100305.94
2023-02-13T18:44:37.953Z,100300.66
2023-02-13T18:47:04.459Z,100295.78
2023-02-13T18:49:31.175Z,100305.16
2023-02-13T18:51:57.772Z,100302.88
2023-02-13T18:54:24.257Z,100294.44
2023-02-13T18:56:50.815Z,100303.75
2023-02-13T18:59:18.544Z,100295.84
2023-02-13T19:01:45.501Z,100295.28
2023-02-13T19:04:12.260Z,100301.44
2023-02-13T19:06:39.090Z,100305.28
2023-02-13T19:09:05.558Z,100301.31
2023-02-13T19:11:34.172Z,100310.38
2023-02-13T19:14:01.306Z,100301.56
2023-02-13T19:16:28.772Z,100306.94
2023-02-13T19:18:56.113Z,100306.44
2023-02-13T19:21:24.196Z,100303.41
2023-02-13T19:23:50.848Z,100290.94
2023-02-13T19:26:18.981Z,100293.88
2023-02-13T19:28:45.516Z,100297.28
2023-02-13T19:31:15.021Z,100304.22
2023-02-13T19:33:41.840Z,100306.38
2023-02-13T19:36:11.787Z,100304.97
2023-02-13T19:38:39.194Z,100303.91
2023-02-13T19:41:06.790Z,100300.91
2023-02-13T19:43:33.268Z,100307.09
2023-02-13T19:46:04.956Z,100297.78
2023-02-13T19:48:31.970Z,100301.66
2023-02-13T19:50:58.821Z,100301.16
2023-02-13T19:53:25.588Z,100299.53
2023-02-13T19:55:59.054Z,100310.78
2023-02-13T19:58:25.842Z,100304.72
2023-02-13T20:01:16.596Z,100311.50
2023-02-13T20:03:43.457Z,100310.66
2023-02-13T20:06:14.519Z,100310.72
2023-02-13T20:08:42.957Z,100313.59
2023-02-13T20:11:11.010Z,100314.31
2023-02-13T20:13:37.535Z,100310.88
2023-02-13T20:16:05.613Z,100300.81
2023-02-13T20:18:32.639Z,100296.78
2023-02-13T20:20:59.777Z,100289.47
2023-02-13T20:23:26.455Z,100289.22
2023-02-13T20:25:52.906Z,100293.25
2023-02-13T20:28:19.378Z,100293.59
2023-02-13T20:30:45.945Z,100290.06
2023-02-13T20:33:12.546Z,100292.91
2023-02-13T20:35:39.074Z,100286.09
2023-02-13T20:38:05.533Z,100298.53
2023-02-13T20:40:32.044Z,100296.81
2023-02-13T20:42:58.510Z,100291.63
2023-02-13T20:45:25.010Z,100290.19
2023-02-13T20:47:51.537Z,100293.53
2023-02-13T20:50:18.100Z,100297.50
2023-02-13T20:52:44.570Z,100305.75
2023-02-13T20:55:11.133Z,100298.75
2023-02-13T20:57:37.862Z,100300.56
2023-02-13T21:00:04.655Z,100291.31
2023-02-13T21:02:31.137Z,100293.53
2023-02-13T21:04:57.615Z,100298.53
2023-02-13T21:07:24.144Z,100303.25
2023-02-13T21:09:50.675Z,100303.59
2023-02-13T21:12:17.224Z,100297.56
2023-02-13T21:14:43.678Z,100290.44
2023-02-13T21:17:10.153Z,100278.59
2023-02-13T21:19:36.622Z,100269.97
2023-02-13T21:22:12.101Z,100261.75
2023-02-13T21:24:42.271Z,100250.34
2023-02-13T21:27:08.702Z,100242.97
2023-02-13T21:29:36.193Z,100224.88
2023-02-13T21:32:02.810Z,100215.13
2023-02-13T21:34:29.324Z,100222.50
2023-02-13T21:36:55.825Z,100220.81
2023-02-13T21:39:22.294Z,100219.34
2023-02-13T21:41:48.856Z,100211.94
2023-02-13T21:44:15.875Z,100220.16
2023-02-13T21:46:42.764Z,100215.50
2023-02-13T21:49:12.273Z,100228.75
2023-02-13T21:51:38.760Z,100231.91
2023-02-13T21:54:05.352Z,100230.53
2023-02-13T21:56:33.531Z,100225.16
2023-02-13T21:59:00.098Z,100249.34
2023-02-13T22:01:30.788Z,100248.63
2023-02-13T22:04:01.387Z,100250.00
2023-02-13T22:06:28.725Z,100253.75
2023-02-13T22:09:03.885Z,100240.06
2023-02-13T22:11:30.427Z,100224.53
2023-02-13T22:14:00.042Z,100222.63
2023-02-13T22:16:26.635Z,100208.44
2023-02-13T22:18:53.232Z,100202.13
2023-02-13T22:21:21.170Z,100191.09
2023-02-13T22:23:47.818Z,100186.16
2023-02-13T22:26:22.159Z,100172.38
2023-02-13T22:28:48.985Z,100169.91
2023-02-13T22:31:15.905Z,100167.44
2023-02-13T22:33:42.980Z,100168.00
2023-02-13T22:36:11.897Z,100157.53
2023-02-13T22:38:38.736Z,100163.03
2023-02-13T22:41:09.307Z,100160.31
2023-02-13T22:43:35.867Z,100153.44
2023-02-13T22:46:06.886Z,100162.50
2023-02-13T22:48:35.123Z,100158.41
2023-02-13T22:51:03.462Z,100156.72
2023-02-13T22:53:29.932Z,100153.41
2023-02-13T22:55:56.433Z,100145.19
2023-02-13T22:58:22.914Z,100138.28
2023-02-13T23:00:49.410Z,100140.75
2023-02-13T23:03:15.911Z,100138.81
2023-02-13T23:05:42.392Z,100146.53
2023-02-13T23:08:09.263Z,100137.19
2023-02-13T23:10:35.730Z,100142.97
2023-02-13T23:13:02.214Z,100142.09
2023-02-13T23:15:28.763Z,100139.63
2023-02-13T23:18:13.401Z,100133.50
2023-02-13T23:20:42.981Z,100127.88
2023-02-13T23:23:09.585Z,100139.06
2023-02-13T23:25:36.537Z,100140.09
2023-02-13T23:28:03.073Z,100140.53
2023-02-13T23:30:30.110Z,100150.03
2023-02-13T23:32:57.525Z,100158.19
2023-02-13T23:35:24.002Z,100161.63
2023-02-13T23:37:50.493Z,100164.84
2023-02-13T23:40:17.014Z,100175.75
2023-02-13T23:42:43.579Z,100175.94
2023-02-13T23:45:10.575Z,100185.34
2023-02-13T23:47:37.356Z,100190.09
2023-02-13T23:50:05.085Z,100199.59
2023-02-13T23:52:31.635Z,100197.69
2023-02-13T23:54:58.119Z,100204.59
2023-02-13T23:57:24.653Z,100211.63
2023-02-13T23:59:51.409Z,100222.69
